sensor_id;sensor_type;location;lat;lon;timestamp;P1;durP1;ratioP1;P2;durP2;ratioP2
10947;SDS011;5526;42.070;24.752;2023-02-28T00:02:11;21.70;;;10.60;;
10947;SDS011;5526;42.070;24.752;2023-02-28T00:04:38;21.42;;;9.48;;
10947;SDS011;5526;42.070;24.752;2023-02-28T00:07:05;22.85;;;9.82;;
10947;SDS011;5526;42.070;24.752;2023-02-28T00:09:32;19.20;;;7.80;;
10947;SDS011;5526;42.070;24.752;2023-02-28T00:12:00;17.98;;;6.22;;
10947;SDS011;5526;42.070;24.752;2023-02-28T00:14:35;15.82;;;6.95;;
10947;SDS011;5526;42.070;24.752;2023-02-28T00:17:02;15.93;;;6.40;;
10947;SDS011;5526;42.070;24.752;2023-02-28T00:19:29;19.05;;;8.52;;
10947;SDS011;5526;42.070;24.752;2023-02-28T00:21:56;15.75;;;9.43;;
10947;SDS011;5526;42.070;24.752;2023-02-28T00:24:23;18.35;;;9.85;;
10947;SDS011;5526;42.070;24.752;2023-02-28T00:26:50;19.80;;;11.30;;
10947;SDS011;5526;42.070;24.752;2023-02-28T00:29:19;22.95;;;12.27;;
10947;SDS011;5526;42.070;24.752;2023-02-28T00:31:46;20.98;;;13.23;;
10947;SDS011;5526;42.070;24.752;2023-02-28T00:34:13;24.08;;;13.20;;
10947;SDS011;5526;42.070;24.752;2023-02-28T00:36:40;19.67;;;10.73;;
10947;SDS011;5526;42.070;24.752;2023-02-28T00:39:10;19.73;;;10.10;;
10947;SDS011;5526;42.070;24.752;2023-02-28T00:41:37;16.85;;;8.70;;
10947;SDS011;5526;42.070;24.752;2023-02-28T00:44:04;16.88;;;8.68;;
10947;SDS011;5526;42.070;24.752;2023-02-28T00:46:33;22.10;;;11.70;;
10947;SDS011;5526;42.070;24.752;2023-02-28T00:49:00;19.02;;;9.27;;
10947;SDS011;5526;42.070;24.752;2023-02-28T00:51:27;18.45;;;6.55;;
10947;SDS011;5526;42.070;24.752;2023-02-28T00:53:54;15.98;;;5.70;;
10947;SDS011;5526;42.070;24.752;2023-02-28T00:56:21;14.52;;;5.03;;
10947;SDS011;5526;42.070;24.752;2023-02-28T00:58:48;17.85;;;6.03;;
10947;SDS011;5526;42.070;24.752;2023-02-28T01:01:15;19.17;;;5.72;;
10947;SDS011;5526;42.070;24.752;2023-02-28T01:03:44;14.27;;;4.43;;
10947;SDS011;5526;42.070;24.752;2023-02-28T01:06:11;18.05;;;5.05;;
10947;SDS011;5526;42.070;24.752;2023-02-28T01:08:38;17.80;;;5.13;;
10947;SDS011;5526;42.070;24.752;2023-02-28T01:11:08;10.52;;;4.70;;
10947;SDS011;5526;42.070;24.752;2023-02-28T01:13:36;15.88;;;4.68;;
10947;SDS011;5526;42.070;24.752;2023-02-28T01:16:04;14.35;;;4.53;;
10947;SDS011;5526;42.070;24.752;2023-02-28T01:18:31;17.67;;;5.07;;
10947;SDS011;5526;42.070;24.752;2023-02-28T01:21:04;17.35;;;4.80;;
10947;SDS011;5526;42.070;24.752;2023-02-28T01:23:31;14.77;;;4.75;;
10947;SDS011;5526;42.070;24.752;2023-02-28T01:26:03;13.82;;;5.72;;
10947;SDS011;5526;42.070;24.752;2023-02-28T01:28:31;15.18;;;5.13;;
10947;SDS011;5526;42.070;24.752;2023-02-28T01:30:58;16.95;;;6.30;;
10947;SDS011;5526;42.070;24.752;2023-02-28T01:33:25;17.85;;;7.32;;
10947;SDS011;5526;42.070;24.752;2023-02-28T01:35:57;22.52;;;7.38;;
10947;SDS011;5526;42.070;24.752;2023-02-28T01:38:26;17.00;;;7.68;;
10947;SDS011;5526;42.070;24.752;2023-02-28T01:40:53;17.73;;;8.10;;
10947;SDS011;5526;42.070;24.752;2023-02-28T01:43:21;17.05;;;8.20;;
10947;SDS011;5526;42.070;24.752;2023-02-28T01:45:50;18.30;;;7.95;;
10947;SDS011;5526;42.070;24.752;2023-02-28T01:48:18;18.65;;;8.65;;
10947;SDS011;5526;42.070;24.752;2023-02-28T01:50:47;20.90;;;8.90;;
10947;SDS011;5526;42.070;24.752;2023-02-28T01:53:15;15.35;;;9.00;;
10947;SDS011;5526;42.070;24.752;2023-02-28T01:55:48;21.17;;;10.02;;
10947;SDS011;5526;42.070;24.752;2023-02-28T01:58:18;17.45;;;8.98;;
10947;SDS011;5526;42.070;24.752;2023-02-28T02:00:45;16.13;;;9.35;;
10947;SDS011;5526;42.070;24.752;2023-02-28T02:03:13;17.08;;;8.82;;
10947;SDS011;5526;42.070;24.752;2023-02-28T02:05:44;17.98;;;8.65;;
10947;SDS011;5526;42.070;24.752;2023-02-28T02:08:13;16.52;;;8.07;;
10947;SDS011;5526;42.070;24.752;2023-02-28T02:10:44;14.82;;;7.80;;
10947;SDS011;5526;42.070;24.752;2023-02-28T02:13:21;16.65;;;7.43;;
10947;SDS011;5526;42.070;24.752;2023-02-28T02:16:02;15.35;;;7.55;;
10947;SDS011;5526;42.070;24.752;2023-02-28T02:18:38;17.15;;;8.07;;
10947;SDS011;5526;42.070;24.752;2023-02-28T02:27:19;18.75;;;7.45;;
10947;SDS011;5526;42.070;24.752;2023-02-28T02:33:03;18.23;;;7.50;;
10947;SDS011;5526;42.070;24.752;2023-02-28T02:35:42;18.30;;;7.32;;
10947;SDS011;5526;42.070;24.752;2023-02-28T02:38:16;18.20;;;8.10;;
10947;SDS011;5526;42.070;24.752;2023-02-28T02:40:53;20.70;;;6.88;;
10947;SDS011;5526;42.070;24.752;2023-02-28T02:43:26;14.43;;;6.43;;
10947;SDS011;5526;42.070;24.752;2023-02-28T02:45:59;18.35;;;6.63;;
10947;SDS011;5526;42.070;24.752;2023-02-28T02:48:32;14.23;;;6.75;;
10947;SDS011;5526;42.070;24.752;2023-02-28T02:51:06;16.27;;;6.63;;
10947;SDS011;5526;42.070;24.752;2023-02-28T02:53:37;17.52;;;8.18;;
10947;SDS011;5526;42.070;24.752;2023-02-28T02:56:09;17.20;;;7.80;;
10947;SDS011;5526;42.070;24.752;2023-02-28T02:58:39;18.98;;;8.02;;
10947;SDS011;5526;42.070;24.752;2023-02-28T03:01:10;15.85;;;8.82;;
10947;SDS011;5526;42.070;24.752;2023-02-28T03:03:42;18.25;;;9.60;;
10947;SDS011;5526;42.070;24.752;2023-02-28T03:06:12;17.02;;;9.30;;
10947;SDS011;5526;42.070;24.752;2023-02-28T03:08:41;17.95;;;9.50;;
10947;SDS011;5526;42.070;24.752;2023-02-28T03:11:11;14.23;;;8.90;;
10947;SDS011;5526;42.070;24.752;2023-02-28T03:13:54;14.07;;;9.38;;
10947;SDS011;5526;42.070;24.752;2023-02-28T03:16:44;17.25;;;10.70;;
10947;SDS011;5526;42.070;24.752;2023-02-28T03:22:17;16.52;;;11.32;;
10947;SDS011;5526;42.070;24.752;2023-02-28T03:24:54;19.02;;;11.05;;
10947;SDS011;5526;42.070;24.752;2023-02-28T03:27:29;15.52;;;10.73;;
10947;SDS011;5526;42.070;24.752;2023-02-28T03:30:02;15.80;;;11.30;;
10947;SDS011;5526;42.070;24.752;2023-02-28T03:32:33;16.45;;;10.68;;
10947;SDS011;5526;42.070;24.752;2023-02-28T03:35:05;17.33;;;11.73;;
10947;SDS011;5526;42.070;24.752;2023-02-28T03:37:38;16.90;;;11.52;;
10947;SDS011;5526;42.070;24.752;2023-02-28T03:40:09;17.83;;;11.95;;
10947;SDS011;5526;42.070;24.752;2023-02-28T03:42:41;16.27;;;11.52;;
10947;SDS011;5526;42.070;24.752;2023-02-28T03:45:11;19.88;;;12.20;;
10947;SDS011;5526;42.070;24.752;2023-02-28T03:47:44;15.15;;;11.23;;
10947;SDS011;5526;42.070;24.752;2023-02-28T03:50:16;16.90;;;11.93;;
10947;SDS011;5526;42.070;24.752;2023-02-28T03:52:48;14.98;;;11.57;;
10947;SDS011;5526;42.070;24.752;2023-02-28T03:55:20;18.75;;;12.38;;
10947;SDS011;5526;42.070;24.752;2023-02-28T03:57:51;19.25;;;12.07;;
10947;SDS011;5526;42.070;24.752;2023-02-28T04:00:26;18.38;;;13.00;;
10947;SDS011;5526;42.070;24.752;2023-02-28T04:02:56;16.98;;;12.77;;
10947;SDS011;5526;42.070;24.752;2023-02-28T04:05:23;16.77;;;12.35;;
10947;SDS011;5526;42.070;24.752;2023-02-28T04:07:53;19.50;;;12.88;;
10947;SDS011;5526;42.070;24.752;2023-02-28T04:10:20;21.13;;;12.68;;
10947;SDS011;5526;42.070;24.752;2023-02-28T04:12:47;17.05;;;12.13;;
10947;SDS011;5526;42.070;24.752;2023-02-28T04:15:14;18.50;;;13.02;;
10947;SDS011;5526;42.070;24.752;2023-02-28T04:17:41;17.83;;;13.55;;
10947;SDS011;5526;42.070;24.752;2023-02-28T04:20:08;19.08;;;13.18;;
10947;SDS011;5526;42.070;24.752;2023-02-28T04:22:36;18.27;;;13.20;;
10947;SDS011;5526;42.070;24.752;2023-02-28T04:25:06;16.33;;;12.80;;
10947;SDS011;5526;42.070;24.752;2023-02-28T04:27:33;18.88;;;12.68;;
10947;SDS011;5526;42.070;24.752;2023-02-28T04:30:00;17.98;;;13.02;;
10947;SDS011;5526;42.070;24.752;2023-02-28T04:32:27;16.00;;;13.02;;
10947;SDS011;5526;42.070;24.752;2023-02-28T04:34:54;19.27;;;13.23;;
10947;SDS011;5526;42.070;24.752;2023-02-28T04:37:21;17.88;;;14.27;;
10947;SDS011;5526;42.070;24.752;2023-02-28T04:39:53;19.17;;;13.52;;
10947;SDS011;5526;42.070;24.752;2023-02-28T04:42:21;17.83;;;14.68;;
10947;SDS011;5526;42.070;24.752;2023-02-28T04:44:48;18.58;;;14.77;;
10947;SDS011;5526;42.070;24.752;2023-02-28T04:47:15;17.88;;;14.45;;
10947;SDS011;5526;42.070;24.752;2023-02-28T04:49:42;15.50;;;13.80;;
10947;SDS011;5526;42.070;24.752;2023-02-28T04:52:09;16.80;;;14.25;;
10947;SDS011;5526;42.070;24.752;2023-02-28T04:54:36;17.48;;;14.25;;
10947;SDS011;5526;42.070;24.752;2023-02-28T04:57:04;18.15;;;14.55;;
10947;SDS011;5526;42.070;24.752;2023-02-28T04:59:32;18.98;;;14.50;;
10947;SDS011;5526;42.070;24.752;2023-02-28T05:01:59;17.73;;;13.95;;
10947;SDS011;5526;42.070;24.752;2023-02-28T05:04:32;19.50;;;13.70;;
10947;SDS011;5526;42.070;24.752;2023-02-28T05:06:59;17.55;;;13.35;;
10947;SDS011;5526;42.070;24.752;2023-02-28T05:09:27;16.38;;;13.95;;
10947;SDS011;5526;42.070;24.752;2023-02-28T05:11:54;17.33;;;13.40;;
10947;SDS011;5526;42.070;24.752;2023-02-28T05:14:21;17.23;;;13.50;;
10947;SDS011;5526;42.070;24.752;2023-02-28T05:16:50;20.42;;;14.05;;
10947;SDS011;5526;42.070;24.752;2023-02-28T05:19:17;18.02;;;13.90;;
10947;SDS011;5526;42.070;24.752;2023-02-28T05:21:48;17.00;;;13.25;;
10947;SDS011;5526;42.070;24.752;2023-02-28T05:24:17;20.08;;;13.52;;
10947;SDS011;5526;42.070;24.752;2023-02-28T05:26:48;15.77;;;13.07;;
10947;SDS011;5526;42.070;24.752;2023-02-28T05:29:16;16.30;;;12.98;;
10947;SDS011;5526;42.070;24.752;2023-02-28T05:31:43;15.32;;;13.50;;
10947;SDS011;5526;42.070;24.752;2023-02-28T05:34:11;17.40;;;13.88;;
10947;SDS011;5526;42.070;24.752;2023-02-28T05:36:40;16.42;;;13.82;;
10947;SDS011;5526;42.070;24.752;2023-02-28T05:39:08;16.10;;;13.55;;
10947;SDS011;5526;42.070;24.752;2023-02-28T05:41:38;16.88;;;13.50;;
10947;SDS011;5526;42.070;24.752;2023-02-28T05:44:06;16.15;;;13.63;;
10947;SDS011;5526;42.070;24.752;2023-02-28T05:46:34;17.23;;;12.90;;
10947;SDS011;5526;42.070;24.752;2023-02-28T05:49:01;16.85;;;13.32;;
10947;SDS011;5526;42.070;24.752;2023-02-28T05:51:29;15.40;;;12.73;;
10947;SDS011;5526;42.070;24.752;2023-02-28T05:53:58;19.90;;;14.45;;
10947;SDS011;5526;42.070;24.752;2023-02-28T05:56:26;17.02;;;13.15;;
10947;SDS011;5526;42.070;24.752;2023-02-28T05:58:53;15.93;;;13.90;;
10947;SDS011;5526;42.070;24.752;2023-02-28T06:01:21;15.65;;;12.98;;
10947;SDS011;5526;42.070;24.752;2023-02-28T06:03:51;18.08;;;14.65;;
10947;SDS011;5526;42.070;24.752;2023-02-28T06:06:18;16.20;;;13.73;;
10947;SDS011;5526;42.070;24.752;2023-02-28T06:08:46;16.33;;;13.73;;
10947;SDS011;5526;42.070;24.752;2023-02-28T06:11:13;17.00;;;13.90;;
10947;SDS011;5526;42.070;24.752;2023-02-28T06:13:40;18.48;;;12.98;;
10947;SDS011;5526;42.070;24.752;2023-02-28T06:16:08;15.65;;;13.75;;
10947;SDS011;5526;42.070;24.752;2023-02-28T06:18:37;19.23;;;13.98;;
10947;SDS011;5526;42.070;24.752;2023-02-28T06:21:04;18.48;;;13.48;;
10947;SDS011;5526;42.070;24.752;2023-02-28T06:23:31;19.67;;;14.32;;
10947;SDS011;5526;42.070;24.752;2023-02-28T06:26:00;20.50;;;14.60;;
10947;SDS011;5526;42.070;24.752;2023-02-28T06:28:27;19.55;;;15.30;;
10947;SDS011;5526;42.070;24.752;2023-02-28T06:30:54;19.60;;;15.00;;
10947;SDS011;5526;42.070;24.752;2023-02-28T06:33:21;21.20;;;15.23;;
10947;SDS011;5526;42.070;24.752;2023-02-28T06:35:49;19.30;;;15.70;;
10947;SDS011;5526;42.070;24.752;2023-02-28T06:38:17;18.98;;;15.75;;
10947;SDS011;5526;42.070;24.752;2023-02-28T06:40:48;20.08;;;15.32;;
10947;SDS011;5526;42.070;24.752;2023-02-28T06:43:21;20.67;;;16.23;;
10947;SDS011;5526;42.070;24.752;2023-02-28T06:45:49;20.13;;;17.05;;
10947;SDS011;5526;42.070;24.752;2023-02-28T06:48:16;23.92;;;17.95;;
10947;SDS011;5526;42.070;24.752;2023-02-28T06:50:44;24.85;;;18.63;;
10947;SDS011;5526;42.070;24.752;2023-02-28T06:53:12;25.30;;;18.75;;
10947;SDS011;5526;42.070;24.752;2023-02-28T06:55:39;21.30;;;18.85;;
10947;SDS011;5526;42.070;24.752;2023-02-28T06:58:06;21.70;;;17.92;;
10947;SDS011;5526;42.070;24.752;2023-02-28T07:00:41;22.50;;;17.98;;
10947;SDS011;5526;42.070;24.752;2023-02-28T07:03:09;24.65;;;19.73;;
10947;SDS011;5526;42.070;24.752;2023-02-28T07:05:36;22.98;;;18.25;;
10947;SDS011;5526;42.070;24.752;2023-02-28T07:08:03;22.50;;;18.23;;
10947;SDS011;5526;42.070;24.752;2023-02-28T07:10:32;23.30;;;17.58;;
10947;SDS011;5526;42.070;24.752;2023-02-28T07:13:00;20.88;;;16.40;;
10947;SDS011;5526;42.070;24.752;2023-02-28T07:15:27;17.80;;;15.35;;
10947;SDS011;5526;42.070;24.752;2023-02-28T07:17:55;18.25;;;13.90;;
10947;SDS011;5526;42.070;24.752;2023-02-28T07:20:23;19.13;;;15.07;;
10947;SDS011;5526;42.070;24.752;2023-02-28T07:22:50;20.92;;;15.40;;
10947;SDS011;5526;42.070;24.752;2023-02-28T07:25:21;18.30;;;15.65;;
10947;SDS011;5526;42.070;24.752;2023-02-28T07:27:49;21.75;;;16.48;;
10947;SDS011;5526;42.070;24.752;2023-02-28T07:30:16;19.80;;;15.48;;
10947;SDS011;5526;42.070;24.752;2023-02-28T07:32:43;18.75;;;15.25;;
10947;SDS011;5526;42.070;24.752;2023-02-28T07:35:12;19.90;;;16.00;;
10947;SDS011;5526;42.070;24.752;2023-02-28T07:37:40;18.08;;;16.17;;
10947;SDS011;5526;42.070;24.752;2023-02-28T07:40:08;22.17;;;19.75;;
10947;SDS011;5526;42.070;24.752;2023-02-28T07:42:37;21.10;;;17.88;;
10947;SDS011;5526;42.070;24.752;2023-02-28T07:45:05;24.95;;;18.92;;
10947;SDS011;5526;42.070;24.752;2023-02-28T07:47:33;22.30;;;17.13;;
10947;SDS011;5526;42.070;24.752;2023-02-28T07:50:00;22.10;;;16.70;;
10947;SDS011;5526;42.070;24.752;2023-02-28T07:52:29;20.00;;;16.20;;
10947;SDS011;5526;42.070;24.752;2023-02-28T07:54:56;21.95;;;16.98;;
10947;SDS011;5526;42.070;24.752;2023-02-28T07:57:23;21.08;;;16.05;;
10947;SDS011;5526;42.070;24.752;2023-02-28T07:59:50;22.20;;;17.27;;
10947;SDS011;5526;42.070;24.752;2023-02-28T08:02:18;23.25;;;18.08;;
10947;SDS011;5526;42.070;24.752;2023-02-28T08:04:45;23.10;;;17.77;;
10947;SDS011;5526;42.070;24.752;2023-02-28T08:07:13;26.75;;;18.52;;
10947;SDS011;5526;42.070;24.752;2023-02-28T08:09:41;24.38;;;18.55;;
10947;SDS011;5526;42.070;24.752;2023-02-28T08:12:09;25.48;;;18.95;;
10947;SDS011;5526;42.070;24.752;2023-02-28T08:14:37;25.10;;;17.85;;
10947;SDS011;5526;42.070;24.752;2023-02-28T08:17:04;21.70;;;17.92;;
10947;SDS011;5526;42.070;24.752;2023-02-28T08:19:32;23.13;;;17.45;;
10947;SDS011;5526;42.070;24.752;2023-02-28T08:21:59;25.10;;;18.52;;
10947;SDS011;5526;42.070;24.752;2023-02-28T08:24:26;22.40;;;17.50;;
10947;SDS011;5526;42.070;24.752;2023-02-28T08:26:55;20.55;;;17.83;;
10947;SDS011;5526;42.070;24.752;2023-02-28T08:29:22;24.60;;;19.20;;
10947;SDS011;5526;42.070;24.752;2023-02-28T08:31:49;25.10;;;19.50;;
10947;SDS011;5526;42.070;24.752;2023-02-28T08:34:16;21.58;;;19.02;;
10947;SDS011;5526;42.070;24.752;2023-02-28T08:36:43;23.27;;;18.80;;
10947;SDS011;5526;42.070;24.752;2023-02-28T08:39:11;21.27;;;17.80;;
10947;SDS011;5526;42.070;24.752;2023-02-28T08:41:39;23.10;;;17.42;;
10947;SDS011;5526;42.070;24.752;2023-02-28T08:44:07;20.98;;;18.30;;
10947;SDS011;5526;42.070;24.752;2023-02-28T08:46:34;21.65;;;17.52;;
10947;SDS011;5526;42.070;24.752;2023-02-28T08:49:01;23.45;;;16.80;;
10947;SDS011;5526;42.070;24.752;2023-02-28T08:51:29;23.50;;;18.33;;
10947;SDS011;5526;42.070;24.752;2023-02-28T08:53:57;26.05;;;19.55;;
10947;SDS011;5526;42.070;24.752;2023-02-28T08:56:26;28.73;;;21.67;;
10947;SDS011;5526;42.070;24.752;2023-02-28T08:58:54;25.65;;;19.25;;
10947;SDS011;5526;42.070;24.752;2023-02-28T09:01:25;25.55;;;19.35;;
10947;SDS011;5526;42.070;24.752;2023-02-28T09:03:54;23.55;;;18.63;;
10947;SDS011;5526;42.070;24.752;2023-02-28T09:06:22;21.75;;;18.45;;
10947;SDS011;5526;42.070;24.752;2023-02-28T09:08:51;24.45;;;19.05;;
10947;SDS011;5526;42.070;24.752;2023-02-28T09:11:19;25.35;;;20.10;;
10947;SDS011;5526;42.070;24.752;2023-02-28T09:13:46;27.55;;;19.67;;
10947;SDS011;5526;42.070;24.752;2023-02-28T09:16:13;24.27;;;20.45;;
10947;SDS011;5526;42.070;24.752;2023-02-28T09:18:44;22.48;;;19.77;;
10947;SDS011;5526;42.070;24.752;2023-02-28T09:21:12;24.63;;;19.77;;
10947;SDS011;5526;42.070;24.752;2023-02-28T09:23:40;26.27;;;19.95;;
10947;SDS011;5526;42.070;24.752;2023-02-28T09:26:12;22.80;;;20.38;;
10947;SDS011;5526;42.070;24.752;2023-02-28T09:28:41;22.20;;;19.67;;
10947;SDS011;5526;42.070;24.752;2023-02-28T09:31:10;23.35;;;19.63;;
10947;SDS011;5526;42.070;24.752;2023-02-28T09:33:39;22.77;;;19.85;;
10947;SDS011;5526;42.070;24.752;2023-02-28T09:36:08;23.05;;;20.48;;
10947;SDS011;5526;42.070;24.752;2023-02-28T09:38:35;22.20;;;19.85;;
10947;SDS011;5526;42.070;24.752;2023-02-28T09:41:02;26.05;;;23.40;;
10947;SDS011;5526;42.070;24.752;2023-02-28T09:43:37;25.73;;;23.17;;
10947;SDS011;5526;42.070;24.752;2023-02-28T09:46:11;24.90;;;21.45;;
10947;SDS011;5526;42.070;24.752;2023-02-28T09:48:45;26.50;;;20.50;;
10947;SDS011;5526;42.070;24.752;2023-02-28T09:51:22;25.88;;;21.27;;
10947;SDS011;5526;42.070;24.752;2023-02-28T09:54:00;27.95;;;21.80;;
10947;SDS011;5526;42.070;24.752;2023-02-28T09:56:28;24.50;;;21.17;;
10947;SDS011;5526;42.070;24.752;2023-02-28T09:59:00;26.88;;;21.65;;
10947;SDS011;5526;42.070;24.752;2023-02-28T10:01:31;25.67;;;21.88;;
10947;SDS011;5526;42.070;24.752;2023-02-28T10:04:08;26.08;;;22.50;;
10947;SDS011;5526;42.070;24.752;2023-02-28T10:06:42;25.90;;;21.02;;
10947;SDS011;5526;42.070;24.752;2023-02-28T10:09:14;26.77;;;21.95;;
10947;SDS011;5526;42.070;24.752;2023-02-28T10:11:47;28.58;;;21.52;;
10947;SDS011;5526;42.070;24.752;2023-02-28T10:14:17;29.85;;;26.52;;
10947;SDS011;5526;42.070;24.752;2023-02-28T10:16:47;29.02;;;22.30;;
10947;SDS011;5526;42.070;24.752;2023-02-28T10:19:22;31.15;;;22.33;;
10947;SDS011;5526;42.070;24.752;2023-02-28T10:21:54;24.70;;;18.33;;
10947;SDS011;5526;42.070;24.752;2023-02-28T10:24:27;29.30;;;22.33;;
10947;SDS011;5526;42.070;24.752;2023-02-28T10:26:59;25.55;;;21.17;;
10947;SDS011;5526;42.070;24.752;2023-02-28T10:29:28;31.23;;;22.25;;
10947;SDS011;5526;42.070;24.752;2023-02-28T10:31:59;29.73;;;21.48;;
10947;SDS011;5526;42.070;24.752;2023-02-28T10:34:29;27.83;;;22.58;;
10947;SDS011;5526;42.070;24.752;2023-02-28T10:36:58;28.95;;;22.27;;
10947;SDS011;5526;42.070;24.752;2023-02-28T10:39:38;31.98;;;23.02;;
10947;SDS011;5526;42.070;24.752;2023-02-28T10:42:19;30.02;;;23.70;;
10947;SDS011;5526;42.070;24.752;2023-02-28T10:44:59;28.73;;;23.77;;
10947;SDS011;5526;42.070;24.752;2023-02-28T10:47:33;31.73;;;23.98;;
10947;SDS011;5526;42.070;24.752;2023-02-28T10:50:01;33.17;;;24.20;;
10947;SDS011;5526;42.070;24.752;2023-02-28T10:52:34;32.55;;;23.63;;
10947;SDS011;5526;42.070;24.752;2023-02-28T10:55:14;30.42;;;23.63;;
10947;SDS011;5526;42.070;24.752;2023-02-28T10:57:45;30.38;;;24.00;;
10947;SDS011;5526;42.070;24.752;2023-02-28T11:00:14;29.70;;;24.40;;
10947;SDS011;5526;42.070;24.752;2023-02-28T11:02:44;29.58;;;24.70;;
10947;SDS011;5526;42.070;24.752;2023-02-28T11:05:24;34.10;;;25.92;;
10947;SDS011;5526;42.070;24.752;2023-02-28T11:07:55;57.05;;;51.17;;
10947;SDS011;5526;42.070;24.752;2023-02-28T11:10:27;31.95;;;25.42;;
10947;SDS011;5526;42.070;24.752;2023-02-28T11:12:59;30.75;;;25.00;;
10947;SDS011;5526;42.070;24.752;2023-02-28T11:15:28;32.10;;;25.13;;
10947;SDS011;5526;42.070;24.752;2023-02-28T11:17:58;34.70;;;28.65;;
10947;SDS011;5526;42.070;24.752;2023-02-28T11:20:28;35.58;;;25.98;;
10947;SDS011;5526;42.070;24.752;2023-02-28T11:22:58;32.38;;;24.90;;
10947;SDS011;5526;42.070;24.752;2023-02-28T11:25:28;34.42;;;26.77;;
10947;SDS011;5526;42.070;24.752;2023-02-28T11:27:58;31.10;;;23.63;;
10947;SDS011;5526;42.070;24.752;2023-02-28T11:30:34;33.25;;;25.05;;
10947;SDS011;5526;42.070;24.752;2023-02-28T11:33:18;30.60;;;24.95;;
10947;SDS011;5526;42.070;24.752;2023-02-28T11:35:50;30.58;;;25.88;;
10947;SDS011;5526;42.070;24.752;2023-02-28T11:38:20;32.30;;;25.25;;
10947;SDS011;5526;42.070;24.752;2023-02-28T11:40:49;32.08;;;27.05;;
10947;SDS011;5526;42.070;24.752;2023-02-28T11:43:35;29.98;;;26.15;;
10947;SDS011;5526;42.070;24.752;2023-02-28T11:46:18;29.33;;;25.98;;
10947;SDS011;5526;42.070;24.752;2023-02-28T11:48:58;31.15;;;26.58;;
10947;SDS011;5526;42.070;24.752;2023-02-28T11:51:40;32.00;;;27.70;;
10947;SDS011;5526;42.070;24.752;2023-02-28T11:54:26;30.63;;;27.02;;
10947;SDS011;5526;42.070;24.752;2023-02-28T11:57:03;30.15;;;26.05;;
10947;SDS011;5526;42.070;24.752;2023-02-28T11:59:49;35.10;;;27.73;;
10947;SDS011;5526;42.070;24.752;2023-02-28T12:02:26;36.50;;;26.13;;
10947;SDS011;5526;42.070;24.752;2023-02-28T12:05:10;33.05;;;27.98;;
10947;SDS011;5526;42.070;24.752;2023-02-28T12:07:49;38.58;;;34.47;;
10947;SDS011;5526;42.070;24.752;2023-02-28T12:10:26;37.00;;;30.40;;
10947;SDS011;5526;42.070;24.752;2023-02-28T12:13:00;33.55;;;29.92;;
10947;SDS011;5526;42.070;24.752;2023-02-28T12:15:41;37.22;;;30.85;;
10947;SDS011;5526;42.070;24.752;2023-02-28T12:18:23;35.13;;;30.58;;
10947;SDS011;5526;42.070;24.752;2023-02-28T12:21:01;38.53;;;30.67;;
10947;SDS011;5526;42.070;24.752;2023-02-28T12:23:50;41.47;;;30.45;;
10947;SDS011;5526;42.070;24.752;2023-02-28T12:26:36;39.10;;;31.38;;
10947;SDS011;5526;42.070;24.752;2023-02-28T12:29:09;39.53;;;31.50;;
10947;SDS011;5526;42.070;24.752;2023-02-28T12:31:40;39.15;;;32.17;;
10947;SDS011;5526;42.070;24.752;2023-02-28T12:34:12;38.80;;;32.65;;
10947;SDS011;5526;42.070;24.752;2023-02-28T12:36:42;47.08;;;33.55;;
10947;SDS011;5526;42.070;24.752;2023-02-28T12:39:12;39.78;;;33.45;;
10947;SDS011;5526;42.070;24.752;2023-02-28T12:41:47;41.35;;;33.15;;
10947;SDS011;5526;42.070;24.752;2023-02-28T12:44:19;43.08;;;34.17;;
10947;SDS011;5526;42.070;24.752;2023-02-28T12:46:50;42.70;;;33.53;;
10947;SDS011;5526;42.070;24.752;2023-02-28T12:49:22;45.78;;;36.53;;
10947;SDS011;5526;42.070;24.752;2023-02-28T12:51:55;45.38;;;35.90;;
10947;SDS011;5526;42.070;24.752;2023-02-28T12:54:25;44.50;;;34.53;;
10947;SDS011;5526;42.070;24.752;2023-02-28T12:57:01;48.33;;;37.53;;
10947;SDS011;5526;42.070;24.752;2023-02-28T12:59:34;44.63;;;36.05;;
10947;SDS011;5526;42.070;24.752;2023-02-28T13:02:17;45.15;;;37.85;;
10947;SDS011;5526;42.070;24.752;2023-02-28T13:05:07;49.30;;;36.60;;
10947;SDS011;5526;42.070;24.752;2023-02-28T13:07:51;45.50;;;35.92;;
10947;SDS011;5526;42.070;24.752;2023-02-28T13:10:40;46.00;;;36.10;;
10947;SDS011;5526;42.070;24.752;2023-02-28T13:13:15;46.78;;;37.63;;
10947;SDS011;5526;42.070;24.752;2023-02-28T13:18:31;50.95;;;39.30;;
10947;SDS011;5526;42.070;24.752;2023-02-28T13:21:03;47.72;;;35.90;;
10947;SDS011;5526;42.070;24.752;2023-02-28T13:23:56;41.22;;;34.40;;
10947;SDS011;5526;42.070;24.752;2023-02-28T13:29:39;40.50;;;31.88;;
10947;SDS011;5526;42.070;24.752;2023-02-28T13:35:13;42.03;;;33.15;;
10947;SDS011;5526;42.070;24.752;2023-02-28T13:38:08;43.25;;;33.88;;
10947;SDS011;5526;42.070;24.752;2023-02-28T13:40:41;43.78;;;35.45;;
10947;SDS011;5526;42.070;24.752;2023-02-28T13:43:08;39.40;;;30.58;;
10947;SDS011;5526;42.070;24.752;2023-02-28T13:45:37;38.05;;;31.38;;
10947;SDS011;5526;42.070;24.752;2023-02-28T13:48:15;34.05;;;29.27;;
10947;SDS011;5526;42.070;24.752;2023-02-28T13:50:44;36.15;;;30.33;;
10947;SDS011;5526;42.070;24.752;2023-02-28T13:56:10;35.63;;;29.90;;
10947;SDS011;5526;42.070;24.752;2023-02-28T13:58:54;37.05;;;30.88;;
10947;SDS011;5526;42.070;24.752;2023-02-28T14:07:09;35.70;;;29.33;;
10947;SDS011;5526;42.070;24.752;2023-02-28T14:09:45;37.80;;;29.48;;
10947;SDS011;5526;42.070;24.752;2023-02-28T14:18:28;36.42;;;29.25;;
10947;SDS011;5526;42.070;24.752;2023-02-28T14:20:58;34.42;;;28.10;;
10947;SDS011;5526;42.070;24.752;2023-02-28T14:26:54;38.25;;;29.45;;
10947;SDS011;5526;42.070;24.752;2023-02-28T14:29:33;40.38;;;29.83;;
10947;SDS011;5526;42.070;24.752;2023-02-28T14:32:11;39.45;;;29.70;;
10947;SDS011;5526;42.070;24.752;2023-02-28T14:34:51;39.67;;;29.42;;
10947;SDS011;5526;42.070;24.752;2023-02-28T14:37:28;35.55;;;28.88;;
10947;SDS011;5526;42.070;24.752;2023-02-28T14:39:58;32.42;;;27.50;;
10947;SDS011;5526;42.070;24.752;2023-02-28T14:42:28;34.35;;;28.95;;
10947;SDS011;5526;42.070;24.752;2023-02-28T14:44:57;32.67;;;27.55;;
10947;SDS011;5526;42.070;24.752;2023-02-28T14:47:25;34.45;;;28.45;;
10947;SDS011;5526;42.070;24.752;2023-02-28T14:49:58;31.25;;;27.63;;
10947;SDS011;5526;42.070;24.752;2023-02-28T14:52:26;34.72;;;28.25;;
10947;SDS011;5526;42.070;24.752;2023-02-28T14:54:56;34.35;;;28.98;;
10947;SDS011;5526;42.070;24.752;2023-02-28T14:57:25;35.15;;;29.02;;
10947;SDS011;5526;42.070;24.752;2023-02-28T14:59:58;34.33;;;28.75;;
10947;SDS011;5526;42.070;24.752;2023-02-28T15:02:29;33.45;;;27.00;;
10947;SDS011;5526;42.070;24.752;2023-02-28T15:05:02;32.58;;;28.17;;
10947;SDS011;5526;42.070;24.752;2023-02-28T15:07:45;31.50;;;27.80;;
10947;SDS011;5526;42.070;24.752;2023-02-28T15:10:16;31.77;;;28.33;;
10947;SDS011;5526;42.070;24.752;2023-02-28T15:12:46;33.22;;;27.15;;
10947;SDS011;5526;42.070;24.752;2023-02-28T15:15:18;32.08;;;26.83;;
10947;SDS011;5526;42.070;24.752;2023-02-28T15:17:49;30.50;;;26.88;;
10947;SDS011;5526;42.070;24.752;2023-02-28T15:20:20;30.75;;;26.40;;
10947;SDS011;5526;42.070;24.752;2023-02-28T15:22:49;32.35;;;26.65;;
10947;SDS011;5526;42.070;24.752;2023-02-28T15:25:19;30.05;;;25.67;;